Time;durP1;ratioP1;P1;durP2;ratioP2;P2;SDS_P1;SDS_P2;PMS_P1;PMS_P2;Temp;Humidity;BMP_temperature;BMP_pressure;BME280_temperature;BME280_humidity;BME280_pressure;Samples;Min_cycle;Max_cycle;Signal;HPM_P1;HPM_P2
2023/10/19 00:01:58;;;;;;;18.80;14.35;;;11.30;99.90;;;;;;5045963;28;20029;-72
2023/10/19 00:04:31;;;;;;;17.77;13.75;;;11.30;99.90;;;;;;5044843;28;20143;-72
2023/10/19 00:06:57;;;;;;;19.80;14.63;;;11.30;99.90;;;;;;5045104;28;20031;-72
2023/10/19 00:09:22;;;;;;;20.95;13.60;;;11.30;99.90;;;;;;5049108;28;20033;-72
2023/10/19 00:11:51;;;;;;;21.90;15.93;;;11.30;99.90;;;;;;5050924;28;20036;-72
2023/10/19 00:14:18;;;;;;;21.23;15.70;;;11.30;99.90;;;;;;5052254;28;20047;-72
2023/10/19 00:16:50;;;;;;;24.13;17.63;;;11.30;99.90;;;;;;5044514;28;20386;-71
2023/10/19 00:19:19;;;;;;;21.58;14.93;;;11.30;99.90;;;;;;5041601;28;20063;-72
2023/10/19 00:21:50;;;;;;;22.33;16.00;;;11.30;99.90;;;;;;5052376;28;20409;-72
2023/10/19 00:24:18;;;;;;;21.85;15.52;;;11.30;99.90;;;;;;5049185;28;20028;-72
2023/10/19 00:26:44;;;;;;;26.30;16.50;;;11.40;99.90;;;;;;5050229;28;20108;-71
2023/10/19 00:31:56;;;;;;;23.15;16.95;;;11.40;99.90;;;;;;5046040;28;20078;-72
2023/10/19 00:34:21;;;;;;;24.00;17.10;;;11.40;99.90;;;;;;5051845;28;20028;-71
2023/10/19 00:36:48;;;;;;;27.45;18.85;;;11.40;99.90;;;;;;5049574;28;20520;-71
2023/10/19 00:39:20;;;;;;;23.23;17.65;;;11.40;99.90;;;;;;5042929;28;20032;-72
2023/10/19 00:41:47;;;;;;;22.77;17.05;;;11.40;99.90;;;;;;5044585;28;20510;-72
2023/10/19 00:44:16;;;;;;;26.23;18.10;;;11.40;99.90;;;;;;5051383;28;20033;-71
2023/10/19 00:49:09;;;;;;;24.63;18.55;;;11.40;99.90;;;;;;5049830;28;20433;-71
2023/10/19 00:54:13;;;;;;;23.70;17.80;;;11.50;99.90;;;;;;5049522;28;20031;-72
2023/10/19 00:56:45;;;;;;;26.90;18.88;;;11.50;99.90;;;;;;5049893;28;20029;-72
2023/10/19 00:59:14;;;;;;;24.15;17.23;;;11.40;99.90;;;;;;5041555;28;20080;-72
2023/10/19 01:01:44;;;;;;;26.20;18.75;;;11.50;99.90;;;;;;5048927;28;20091;-72
2023/10/19 01:04:22;;;;;;;22.33;16.95;;;11.40;99.90;;;;;;5050228;28;20119;-72
2023/10/19 01:07:04;;;;;;;26.70;18.90;;;11.50;99.90;;;;;;5050461;28;20441;-72
2023/10/19 01:09:34;;;;;;;24.17;17.83;;;11.50;99.90;;;;;;5035501;28;20485;-72
2023/10/19 01:12:25;;;;;;;26.63;18.05;;;11.60;99.90;;;;;;5045174;28;20036;-72
2023/10/19 01:15:13;;;;;;;25.67;17.15;;;11.70;99.90;;;;;;5048430;28;20544;-72
2023/10/19 01:17:43;;;;;;;22.75;17.40;;;11.70;99.90;;;;;;5042793;28;20489;-71
2023/10/19 01:20:20;;;;;;;23.60;17.63;;;11.70;99.90;;;;;;5042497;28;20108;-72
2023/10/19 01:22:53;;;;;;;23.20;18.02;;;11.70;99.90;;;;;;5044953;28;20072;-72
2023/10/19 01:25:24;;;;;;;;;;;11.80;99.90;;;;;;5050260;28;20036;-72
2023/10/19 01:27:54;;;;;;;22.52;16.63;;;11.70;99.90;;;;;;5034279;28;20116;-72
2023/10/19 01:30:19;;;;;;;24.40;16.75;;;11.80;99.90;;;;;;5047556;28;20126;-72
2023/10/19 01:32:45;;;;;;;22.75;15.95;;;11.80;99.90;;;;;;5044743;28;20494;-72
2023/10/19 01:35:11;;;;;;;25.67;18.25;;;11.80;99.90;;;;;;5044578;28;20572;-72
2023/10/19 01:37:38;;;;;;;25.00;17.10;;;11.90;99.90;;;;;;5046868;28;20041;-72
2023/10/19 01:40:04;;;;;;;21.83;16.38;;;12.00;99.90;;;;;;5050206;28;20040;-71
2023/10/19 01:42:30;;;;;;;22.85;15.82;;;12.00;99.90;;;;;;5047020;28;20036;-72
2023/10/19 01:44:56;;;;;;;24.25;16.67;;;12.00;99.90;;;;;;5047621;28;20100;-72
2023/10/19 01:47:22;;;;;;;20.85;15.82;;;12.00;99.90;;;;;;5042895;28;20156;-72
2023/10/19 01:49:52;;;;;;;21.58;15.10;;;12.00;99.90;;;;;;5046159;28;20123;-72
2023/10/19 01:52:18;;;;;;;21.35;15.10;;;12.10;99.90;;;;;;5046258;28;20032;-72
2023/10/19 01:54:43;;;;;;;18.85;14.02;;;12.10;99.90;;;;;;5048526;28;20029;-72
2023/10/19 01:57:09;;;;;;;22.95;14.98;;;12.20;99.90;;;;;;5047039;28;20064;-72
2023/10/19 01:59:35;;;;;;;23.92;15.38;;;12.20;99.90;;;;;;5043431;28;20485;-72
2023/10/19 02:02:02;;;;;;;21.23;14.35;;;12.30;99.90;;;;;;5048842;28;20032;-72
2023/10/19 02:04:27;;;;;;;21.45;14.38;;;12.30;99.90;;;;;;5049541;28;20025;-72
2023/10/19 02:06:53;;;;;;;21.95;14.52;;;12.30;99.90;;;;;;5047413;28;20461;-72
2023/10/19 02:09:28;;;;;;;19.15;13.07;;;12.40;99.90;;;;;;5042871;28;20030;-72
2023/10/19 02:11:57;;;;;;;24.85;14.15;;;12.40;99.90;;;;;;5037629;28;20033;-72
2023/10/19 02:14:24;;;;;;;20.55;13.93;;;12.40;99.90;;;;;;5036712;28;20087;-72
2023/10/19 02:16:56;;;;;;;22.05;16.10;;;12.50;99.90;;;;;;5045707;28;20110;-72
2023/10/19 02:19:24;;;;;;;29.42;14.27;;;12.50;99.90;;;;;;5034509;28;20452;-72
2023/10/19 02:21:52;;;;;;;16.98;12.65;;;12.60;99.90;;;;;;5038470;28;20075;-72
2023/10/19 02:24:18;;;;;;;18.65;13.05;;;12.60;99.90;;;;;;5046738;28;20032;-72
2023/10/19 02:26:51;;;;;;;18.08;11.82;;;12.70;99.90;;;;;;5047374;28;20078;-72
2023/10/19 02:29:18;;;;;;;17.60;12.27;;;12.70;99.90;;;;;;5043842;28;20061;-72
2023/10/19 02:31:44;;;;;;;18.67;12.98;;;12.80;99.90;;;;;;5044552;28;20096;-72
2023/10/19 02:34:11;;;;;;;15.65;11.32;;;12.80;99.90;;;;;;5044078;28;20104;-72
2023/10/19 02:36:38;;;;;;;16.27;10.60;;;12.80;99.90;;;;;;5048775;28;20060;-72
2023/10/19 02:39:10;;;;;;;18.05;10.70;;;12.90;99.90;;;;;;5033468;28;20033;-72
2023/10/19 02:41:37;;;;;;;14.30;9.43;;;13.00;99.90;;;;;;5028842;28;20025;-72
2023/10/19 02:46:32;;;;;;;13.82;9.30;;;13.10;99.90;;;;;;5046446;28;20037;-72
2023/10/19 02:49:03;;;;;;;17.73;10.02;;;13.20;99.90;;;;;;5046092;28;20025;-72
2023/10/19 02:51:29;;;;;;;13.73;9.25;;;13.20;99.90;;;;;;5052087;28;20032;-72
2023/10/19 02:53:56;;;;;;;12.65;9.02;;;13.30;99.90;;;;;;5046426;28;20385;-72
2023/10/19 02:56:23;;;;;;;12.13;8.68;;;13.30;99.90;;;;;;5050946;28;20044;-72
2023/10/19 02:58:50;;;;;;;12.65;8.60;;;13.40;99.90;;;;;;5049688;28;20025;-72
2023/10/19 03:01:22;;;;;;;10.15;6.55;;;13.40;99.90;;;;;;5053697;28;20500;-72
2023/10/19 03:03:50;;;;;;;10.80;5.90;;;13.50;99.90;;;;;;5050936;28;20104;-72
2023/10/19 03:06:23;;;;;;;9.80;5.55;;;13.60;99.90;;;;;;5049898;28;20026;-72
2023/10/19 03:08:57;;;;;;;11.57;5.85;;;13.70;99.90;;;;;;5044785;28;20600;-72
2023/10/19 03:11:24;;;;;;;8.63;5.20;;;13.80;99.90;;;;;;5044349;28;20028;-72
2023/10/19 03:13:51;;;;;;;8.25;4.28;;;13.80;99.90;;;;;;5045802;28;20032;-72
2023/10/19 03:16:19;;;;;;;7.70;3.20;;;13.80;99.90;;;;;;5022729;28;20037;-72
2023/10/19 03:18:44;;;;;;;7.50;3.30;;;13.90;99.90;;;;;;5047549;28;20379;-72
2023/10/19 03:21:11;;;;;;;6.45;3.58;;;14.00;99.90;;;;;;5046704;28;20059;-72
2023/10/19 03:23:37;;;;;;;8.27;2.88;;;14.00;99.90;;;;;;5041415;28;20040;-72
2023/10/19 03:28:48;;;;;;;7.90;3.13;;;14.10;99.90;;;;;;5044221;28;20086;-72
2023/10/19 03:31:20;;;;;;;5.75;2.75;;;14.10;99.90;;;;;;5046986;28;20029;-72
2023/10/19 03:33:53;;;;;;;6.13;2.35;;;14.10;99.90;;;;;;5051937;28;20469;-72
2023/10/19 03:36:19;;;;;;;5.45;2.53;;;14.10;99.90;;;;;;5043551;28;20095;-72
2023/10/19 03:38:45;;;;;;;6.22;2.75;;;14.10;99.90;;;;;;5049827;28;20078;-72
2023/10/19 03:41:12;;;;;;;6.05;2.80;;;14.10;99.90;;;;;;5027511;28;20059;-72
2023/10/19 03:43:40;;;;;;;8.32;2.92;;;14.10;99.90;;;;;;5040217;28;20100;-71
2023/10/19 03:46:24;;;;;;;5.47;2.97;;;14.10;99.90;;;;;;5040244;28;20036;-72
2023/10/19 03:48:50;;;;;;;5.95;2.97;;;14.10;99.90;;;;;;5043949;28;20057;-72
2023/10/19 03:51:17;;;;;;;6.75;2.85;;;14.10;99.90;;;;;;5047856;28;20067;-72
2023/10/19 03:53:48;;;;;;;7.25;2.75;;;14.10;99.90;;;;;;5050349;28;20108;-71
2023/10/19 03:56:14;;;;;;;9.00;2.97;;;14.10;99.90;;;;;;5050779;28;20033;-72
2023/10/19 03:58:41;;;;;;;5.53;3.22;;;14.10;99.90;;;;;;5051956;28;20037;-72
2023/10/19 04:01:07;;;;;;;8.68;3.40;;;14.10;99.90;;;;;;5046946;28;20034;-72
2023/10/19 04:03:34;;;;;;;6.93;3.22;;;14.10;99.90;;;;;;5053211;28;20121;-72
2023/10/19 04:06:01;;;;;;;8.00;3.33;;;14.10;99.90;;;;;;5049568;28;20443;-72
2023/10/19 04:08:27;;;;;;;5.18;3.08;;;14.00;99.90;;;;;;5045909;28;20025;-72
2023/10/19 04:11:08;;;;;;;6.50;3.97;;;14.10;99.90;;;;;;5027412;28;20526;-71
2023/10/19 04:13:36;;;;;;;7.97;3.83;;;14.10;99.90;;;;;;5046518;28;20120;-72
2023/10/19 04:16:02;;;;;;;8.32;4.65;;;14.00;99.90;;;;;;5044933;28;20036;-72
2023/10/19 04:18:28;;;;;;;6.50;3.90;;;14.00;99.90;;;;;;5050138;28;20036;-72
2023/10/19 04:23:21;;;;;;;7.30;4.10;;;14.00;99.90;;;;;;5039661;28;20040;-72
2023/10/19 04:25:47;;;;;;;5.85;3.53;;;14.00;99.90;;;;;;5044152;28;20385;-71
2023/10/19 04:28:20;;;;;;;9.75;4.40;;;14.00;99.90;;;;;;5049957;28;20033;-72
2023/10/19 04:30:47;;;;;;;8.02;3.97;;;14.00;99.90;;;;;;5048560;28;20025;-72
2023/10/19 04:33:16;;;;;;;6.25;3.88;;;14.00;99.90;;;;;;5048708;28;20415;-72
2023/10/19 04:35:41;;;;;;;5.82;3.88;;;14.00;99.90;;;;;;5052246;28;20045;-72
2023/10/19 04:38:07;;;;;;;10.27;4.13;;;13.90;99.90;;;;;;5042503;28;20044;-71
2023/10/19 04:40:33;;;;;;;9.90;4.28;;;13.90;99.90;;;;;;5051365;28;20025;-71
2023/10/19 04:43:01;;;;;;;8.07;4.13;;;14.00;99.90;;;;;;5050196;28;20552;-71
2023/10/19 04:45:27;;;;;;;7.78;4.22;;;13.90;99.90;;;;;;5049590;28;20033;-72
2023/10/19 04:47:52;;;;;;;5.32;3.53;;;13.90;99.90;;;;;;5029637;28;20078;-72
2023/10/19 04:50:18;;;;;;;6.32;3.97;;;13.80;99.90;;;;;;5047062;28;20029;-72
2023/10/19 04:52:44;;;;;;;7.22;3.83;;;13.70;99.90;;;;;;5045599;28;20029;-72
2023/10/19 04:55:10;;;;;;;8.98;4.10;;;13.70;99.90;;;;;;5044574;28;20036;-71
2023/10/19 04:57:35;;;;;;;6.70;3.97;;;13.60;99.90;;;;;;5050956;28;20487;-72
2023/10/19 05:00:03;;;;;;;7.72;3.88;;;13.60;99.90;;;;;;5037241;28;20481;-71
2023/10/19 05:02:29;;;;;;;7.63;4.25;;;13.50;99.90;;;;;;5048788;28;20390;-71
2023/10/19 05:04:55;;;;;;;7.95;4.57;;;13.50;99.90;;;;;;5052511;28;20465;-71
2023/10/19 05:07:20;;;;;;;9.32;4.45;;;13.40;99.90;;;;;;5051997;28;20086;-71
2023/10/19 05:09:46;;;;;;;12.45;5.35;;;13.40;99.90;;;;;;5051376;28;20063;-71
2023/10/19 05:12:14;;;;;;;8.13;3.83;;;13.40;99.90;;;;;;5044254;28;20040;-72
2023/10/19 05:14:41;;;;;;;8.07;3.72;;;13.40;99.90;;;;;;5049002;28;20098;-71
2023/10/19 05:17:08;;;;;;;7.53;4.50;;;13.40;99.90;;;;;;5051466;28;20046;-72
2023/10/19 05:19:35;;;;;;;7.63;4.28;;;13.40;99.90;;;;;;5044029;28;20103;-71
2023/10/19 05:22:02;;;;;;;7.97;4.20;;;13.30;99.90;;;;;;5042950;28;20395;-71
2023/10/19 05:24:28;;;;;;;8.60;4.55;;;13.30;99.90;;;;;;5040165;28;20032;-72
2023/10/19 05:26:54;;;;;;;7.95;4.72;;;13.30;99.90;;;;;;5048355;28;20017;-71
2023/10/19 05:29:21;;;;;;;8.73;5.00;;;13.40;99.90;;;;;;5046971;28;20047;-71
2023/10/19 05:31:46;;;;;;;7.32;4.63;;;13.40;99.90;;;;;;5035379;28;20489;-71
2023/10/19 05:34:12;;;;;;;7.32;4.40;;;13.40;99.90;;;;;;5038657;28;20079;-71
2023/10/19 05:36:39;;;;;;;8.93;4.20;;;13.40;99.90;;;;;;5032912;28;20050;-71
2023/10/19 05:39:07;;;;;;;8.27;4.60;;;13.50;99.90;;;;;;5041386;28;20417;-71
2023/10/19 05:41:34;;;;;;;9.40;3.80;;;13.50;99.90;;;;;;5039173;28;20037;-71
2023/10/19 05:43:59;;;;;;;7.00;4.10;;;13.60;99.90;;;;;;5044423;28;20029;-71
2023/10/19 05:46:25;;;;;;;7.68;4.05;;;13.60;99.90;;;;;;5051064;28;20473;-71
2023/10/19 05:48:52;;;;;;;8.05;3.92;;;13.60;99.90;;;;;;5048923;28;20384;-71
2023/10/19 05:51:18;;;;;;;6.38;3.53;;;13.60;99.90;;;;;;5029987;28;20074;-71
2023/10/19 05:53:44;;;;;;;7.57;3.20;;;13.70;99.90;;;;;;5037109;28;21553;-71
2023/10/19 05:56:12;;;;;;;6.03;3.45;;;13.70;99.90;;;;;;5028826;28;20647;-70
2023/10/19 05:58:38;;;;;;;6.03;2.53;;;13.70;99.90;;;;;;5034958;28;20087;-71
2023/10/19 06:01:04;;;;;;;4.22;2.65;;;13.70;99.90;;;;;;5042670;28;20025;-71
2023/10/19 06:03:30;;;;;;;8.38;2.75;;;13.80;99.90;;;;;;5047541;28;20032;-71
2023/10/19 06:05:56;;;;;;;7.20;3.22;;;13.80;99.90;;;;;;5051181;28;20025;-71
2023/10/19 06:08:22;;;;;;;3.85;2.03;;;13.80;99.90;;;;;;5026781;28;20026;-71
2023/10/19 06:10:54;;;;;;;6.20;2.60;;;13.80;99.90;;;;;;5039959;28;20028;-71
2023/10/19 06:13:21;;;;;;;4.78;1.83;;;13.90;99.90;;;;;;5035821;28;20036;-71
2023/10/19 06:15:48;;;;;;;6.50;2.30;;;13.90;99.90;;;;;;5049658;28;20121;-71
2023/10/19 06:18:14;;;;;;;6.20;2.70;;;13.90;99.90;;;;;;5045622;28;20496;-71
2023/10/19 06:20:46;;;;;;;5.00;1.90;;;13.90;99.90;;;;;;5044875;28;20079;-70
2023/10/19 06:23:12;;;;;;;4.30;1.80;;;13.90;99.90;;;;;;5045815;28;20057;-72
2023/10/19 06:25:38;;;;;;;5.22;1.90;;;13.90;99.90;;;;;;5043324;28;20432;-72
2023/10/19 06:28:05;;;;;;;8.93;2.17;;;14.00;99.90;;;;;;5041000;28;20103;-70
2023/10/19 06:30:31;;;;;;;6.38;1.80;;;14.00;99.90;;;;;;5042659;28;20037;-70
2023/10/19 06:33:00;;;;;;;7.53;1.98;;;14.00;99.90;;;;;;5040614;28;20453;-70
2023/10/19 06:35:27;;;;;;;6.13;1.55;;;14.10;99.90;;;;;;5031156;28;20056;-69
2023/10/19 06:37:57;;;;;;;3.53;1.05;;;14.10;99.90;;;;;;5033235;28;20132;-70
2023/10/19 06:40:23;;;;;;;7.60;1.75;;;14.10;99.90;;;;;;5042175;28;20571;-70
2023/10/19 06:42:49;;;;;;;6.93;1.20;;;14.20;99.90;;;;;;5040180;28;20104;-70
2023/10/19 06:45:16;;;;;;;9.82;1.35;;;14.10;99.90;;;;;;5048768;28;20060;-70
2023/10/19 06:47:46;;;;;;;7.97;1.25;;;14.10;99.90;;;;;;5049199;28;20021;-71
2023/10/19 06:50:15;;;;;;;4.88;1.20;;;14.20;99.90;;;;;;5034546;28;20022;-71
2023/10/19 06:52:42;;;;;;;9.30;1.17;;;14.20;99.90;;;;;;5044351;28;20500;-71
2023/10/19 06:55:22;;;;;;;8.98;1.30;;;14.20;99.90;;;;;;5049337;28;20370;-71
2023/10/19 06:57:50;;;;;;;5.57;1.05;;;14.20;99.90;;;;;;5038441;28;20556;-71
2023/10/19 07:00:21;;;;;;;5.28;1.10;;;14.20;99.90;;;;;;5045723;28;20075;-71
2023/10/19 07:02:48;;;;;;;4.78;1.23;;;14.20;99.90;;;;;;5033065;28;20473;-71
2023/10/19 07:05:18;;;;;;;6.65;1.40;;;14.20;99.90;;;;;;5043214;28;20079;-71
2023/10/19 07:07:44;;;;;;;6.38;0.90;;;14.20;99.90;;;;;;5050042;28;20477;-71
2023/10/19 07:10:14;;;;;;;5.43;1.20;;;14.20;99.90;;;;;;5049146;28;20368;-71
2023/10/19 07:12:48;;;;;;;6.97;1.48;;;14.20;99.90;;;;;;5039614;28;20561;-71
2023/10/19 07:15:14;;;;;;;5.35;1.33;;;14.30;99.90;;;;;;5042455;28;20537;-71
2023/10/19 07:17:41;;;;;;;5.68;1.42;;;14.30;99.90;;;;;;5050334;28;20084;-71
2023/10/19 07:20:08;;;;;;;6.47;1.10;;;14.30;99.90;;;;;;5049791;28;20025;-71
2023/10/19 07:22:37;;;;;;;5.82;1.10;;;14.30;99.90;;;;;;5049044;28;20036;-71
2023/10/19 07:25:05;;;;;;;5.72;1.10;;;14.30;99.90;;;;;;5049257;28;20472;-71
2023/10/19 07:27:31;;;;;;;6.63;1.20;;;14.40;99.90;;;;;;5050734;28;20024;-71
2023/10/19 07:29:57;;;;;;;9.88;1.27;;;14.40;99.90;;;;;;5046374;28;20389;-71
2023/10/19 07:32:23;;;;;;;4.75;1.65;;;14.40;99.90;;;;;;5047406;28;20033;-71
2023/10/19 07:34:49;;;;;;;6.22;1.65;;;14.40;99.90;;;;;;5051795;28;20559;-71
2023/10/19 07:37:17;;;;;;;9.27;1.15;;;14.40;99.90;;;;;;5051154;28;20099;-71
2023/10/19 07:39:46;;;;;;;7.28;1.13;;;14.50;99.90;;;;;;5046283;28;20043;-71
2023/10/19 07:42:12;;;;;;;5.50;1.10;;;14.50;99.90;;;;;;5045608;28;20036;-71
2023/10/19 07:44:37;;;;;;;6.40;0.85;;;14.50;99.90;;;;;;5039878;28;20453;-71
2023/10/19 07:47:03;;;;;;;10.43;1.67;;;14.60;99.90;;;;;;5047589;28;20048;-71
2023/10/19 07:49:29;;;;;;;7.65;1.23;;;14.60;99.90;;;;;;5048780;28;20473;-71
2023/10/19 07:51:55;;;;;;;7.13;1.00;;;14.60;99.90;;;;;;5047644;28;20083;-71
2023/10/19 07:54:20;;;;;;;5.00;1.00;;;14.70;99.90;;;;;;5053460;28;20456;-71
2023/10/19 07:56:46;;;;;;;8.95;0.90;;;14.70;99.90;;;;;;5039944;28;20029;-71
2023/10/19 07:59:12;;;;;;;7.78;0.88;;;14.70;99.90;;;;;;5036468;28;20053;-71
2023/10/19 08:01:39;;;;;;;11.32;1.83;;;14.70;99.90;;;;;;5051047;28;20082;-71
2023/10/19 08:04:05;;;;;;;8.65;1.38;;;14.80;99.90;;;;;;5045885;28;20035;-71
2023/10/19 08:06:31;;;;;;;9.45;1.30;;;14.80;99.90;;;;;;5050651;28;20029;-71
2023/10/19 08:08:57;;;;;;;9.40;1.63;;;14.80;99.90;;;;;;5049760;28;20028;-71
2023/10/19 08:11:23;;;;;;;6.55;1.35;;;14.90;99.90;;;;;;5046886;28;20029;-71
2023/10/19 08:13:49;;;;;;;11.77;2.25;;;14.90;99.90;;;;;;5053165;28;20037;-71
2023/10/19 08:16:16;;;;;;;5.38;1.23;;;14.90;99.90;;;;;;5052603;28;20086;-71
2023/10/19 08:18:44;;;;;;;9.82;2.30;;;15.00;99.90;;;;;;5051797;28;20489;-71
2023/10/19 08:21:10;;;;;;;7.72;1.40;;;15.00;99.90;;;;;;5052956;28;20055;-71
2023/10/19 08:23:36;;;;;;;12.15;1.98;;;15.00;99.90;;;;;;5053490;28;20457;-71
2023/10/19 08:26:05;;;;;;;11.15;1.40;;;15.10;99.90;;;;;;5053554;28;20235;-71
2023/10/19 08:28:32;;;;;;;13.63;1.85;;;15.20;99.90;;;;;;5049966;28;20040;-71
2023/10/19 08:31:00;;;;;;;7.47;1.27;;;15.20;99.90;;;;;;5052640;28;20032;-71
2023/10/19 08:33:27;;;;;;;8.95;1.55;;;15.30;99.90;;;;;;5052984;28;20036;-71
2023/10/19 08:35:56;;;;;;;9.57;1.38;;;15.30;99.90;;;;;;5044937;28;21538;-71
2023/10/19 08:38:23;;;;;;;8.98;1.65;;;15.40;99.90;;;;;;5047818;28;20124;-71
2023/10/19 08:40:50;;;;;;;10.70;2.00;;;15.50;99.90;;;;;;5040542;28;20025;-71
2023/10/19 08:43:18;;;;;;;7.88;2.08;;;15.50;99.90;;;;;;5047127;28;20037;-71
2023/10/19 08:45:44;;;;;;;5.90;1.55;;;15.50;99.90;;;;;;5041156;28;20035;-71
2023/10/19 08:48:11;;;;;;;10.38;1.83;;;15.60;99.90;;;;;;5033457;28;20041;-71
2023/10/19 08:50:37;;;;;;;8.90;1.70;;;15.60;99.90;;;;;;5050832;28;20021;-71
2023/10/19 08:53:05;;;;;;;7.93;2.15;;;15.70;99.90;;;;;;5053046;28;20024;-71
2023/10/19 08:55:34;;;;;;;6.90;1.85;;;15.70;99.90;;;;;;5048113;28;20031;-71
2023/10/19 08:58:00;;;;;;;12.52;2.17;;;15.70;99.90;;;;;;5038377;28;20041;-71
2023/10/19 09:00:26;;;;;;;6.35;2.13;;;15.70;99.90;;;;;;5041983;28;20029;-71
2023/10/19 09:02:53;;;;;;;13.23;3.75;;;15.70;99.90;;;;;;5045464;28;20055;-71
2023/10/19 09:05:30;;;;;;;8.95;1.85;;;15.70;99.90;;;;;;5033132;28;20033;-71
2023/10/19 09:07:55;;;;;;;9.77;2.17;;;15.80;99.90;;;;;;5045793;28;20025;-71
2023/10/19 09:10:31;;;;;;;12.10;2.72;;;15.80;99.90;;;;;;5051031;28;20017;-71
2023/10/19 09:13:07;;;;;;;14.68;3.10;;;15.70;99.90;;;;;;5049437;28;20082;-71
2023/10/19 09:15:33;;;;;;;10.48;2.95;;;15.80;99.90;;;;;;5038701;28;20112;-71
2023/10/19 09:18:15;;;;;;;10.30;3.22;;;15.80;99.90;;;;;;5049084;28;20120;-71
2023/10/19 09:20:51;;;;;;;13.03;3.20;;;15.90;99.90;;;;;;5041035;28;20042;-71
2023/10/19 09:23:21;;;;;;;11.40;4.20;;;16.10;99.90;;;;;;5033036;28;20287;-71
2023/10/19 09:25:54;;;;;;;10.85;3.30;;;16.30;99.90;;;;;;5046480;28;20040;-71
2023/10/19 09:28:20;;;;;;;13.85;3.35;;;16.50;99.90;;;;;;5044737;28;20094;-71
2023/10/19 09:30:46;;;;;;;10.32;3.63;;;16.60;99.90;;;;;;5041414;28;20432;-71
2023/10/19 09:33:17;;;;;;;8.82;2.95;;;16.80;99.90;;;;;;5045387;28;20025;-71
2023/10/19 09:35:48;;;;;;;9.60;3.13;;;16.90;99.90;;;;;;5051860;28;20095;-71
2023/10/19 09:38:15;;;;;;;10.15;2.55;;;17.00;99.90;;;;;;5040961;28;20405;-71
2023/10/19 09:40:42;;;;;;;9.95;2.30;;;17.10;99.90;;;;;;5042072;28;20055;-71
2023/10/19 09:43:15;;;;;;;10.80;2.90;;;17.20;99.90;;;;;;5046052;28;20033;-71
2023/10/19 09:45:46;;;;;;;9.70;3.00;;;17.20;99.90;;;;;;5047578;28;20033;-71
2023/10/19 09:48:16;;;;;;;8.88;2.50;;;17.30;99.90;;;;;;5049314;28;20029;-71
2023/10/19 09:50:44;;;;;;;8.27;1.77;;;17.40;99.90;;;;;;5045052;28;20381;-72
2023/10/19 09:53:11;;;;;;;10.35;2.53;;;17.50;99.90;;;;;;5049804;28;20035;-71
2023/10/19 09:55:40;;;;;;;9.57;2.33;;;17.50;99.90;;;;;;5050650;28;20028;-71
2023/10/19 09:58:14;;;;;;;8.35;1.73;;;17.50;99.90;;;;;;5048483;28;20473;-71
2023/10/19 10:00:49;;;;;;;18.13;2.25;;;17.50;99.90;;;;;;5038051;28;20051;-71
2023/10/19 10:03:47;;;;;;;11.93;0.93;;;17.50;99.90;;;;;;5033132;28;20033;-71
2023/10/19 10:06:26;;;;;;;8.45;1.38;;;17.60;99.90;;;;;;5028115;28;20028;-72
2023/10/19 10:08:52;;;;;;;6.55;1.30;;;17.50;99.90;;;;;;5037847;28;20373;-71
2023/10/19 10:11:23;;;;;;;15.40;1.80;;;17.60;99.90;;;;;;5048268;28;20025;-71
2023/10/19 10:13:53;;;;;;;11.57;1.40;;;17.70;99.90;;;;;;5050552;28;20037;-71
2023/10/19 10:16:26;;;;;;;10.95;1.05;;;17.80;99.90;;;;;;5044118;28;20032;-71
2023/10/19 10:18:59;;;;;;;10.77;1.02;;;17.90;99.90;;;;;;5037180;28;20025;-71
2023/10/19 10:21:26;;;;;;;7.20;0.60;;;18.00;99.90;;;;;;5045085;28;20039;-71
2023/10/19 10:23:55;;;;;;;12.02;1.60;;;17.90;99.90;;;;;;5032063;28;20029;-71
2023/10/19 10:26:26;;;;;;;7.28;0.60;;;17.90;99.90;;;;;;5049501;28;20039;-71
2023/10/19 10:29:19;;;;;;;13.23;0.85;;;17.80;99.90;;;;;;5043995;28;20028;-72
2023/10/19 10:31:46;;;;;;;7.53;0.80;;;17.70;99.90;;;;;;5043498;28;20029;-71
2023/10/19 10:34:42;;;;;;;13.20;1.30;;;17.70;99.90;;;;;;5043291;28;20108;-72
2023/10/19 10:37:08;;;;;;;11.30;0.93;;;17.80;99.90;;;;;;5037941;28;20191;-71
2023/10/19 10:39:39;;;;;;;11.07;1.15;;;17.90;99.90;;;;;;5048746;28;20029;-72
2023/10/19 10:42:09;;;;;;;9.95;1.02;;;17.90;99.90;;;;;;5040859;28;20480;-71
2023/10/19 10:44:47;;;;;;;10.77;0.98;;;18.00;99.90;;;;;;5048972;28;20473;-71
2023/10/19 10:47:17;;;;;;;8.48;0.57;;;18.00;99.90;;;;;;5030564;28;20069;-72
2023/10/19 10:49:57;;;;;;;10.45;0.77;;;18.10;99.90;;;;;;5029496;28;20135;-71
2023/10/19 10:52:30;;;;;;;9.90;0.75;;;18.20;99.90;;;;;;5050452;28;20037;-71
2023/10/19 10:54:57;;;;;;;7.18;0.60;;;18.30;99.90;;;;;;5049008;28;20071;-71
2023/10/19 10:57:23;;;;;;;6.97;0.88;;;18.50;99.90;;;;;;5046244;28;20033;-71
2023/10/19 11:00:08;;;;;;;10.48;1.45;;;18.60;99.90;;;;;;5047092;28;20366;-71
2023/10/19 11:02:40;;;;;;;8.57;1.10;;;18.70;99.90;;;;;;5050904;28;20036;-72
2023/10/19 11:05:11;;;;;;;11.80;1.17;;;18.90;99.90;;;;;;5047581;28;20188;-72
2023/10/19 11:07:40;;;;;;;12.63;1.47;;;18.90;99.90;;;;;;5043246;28;20386;-72
2023/10/19 11:10:06;;;;;;;12.13;1.20;;;19.10;99.90;;;;;;5043369;28;20029;-72
2023/10/19 11:12:32;;;;;;;8.05;1.95;;;19.10;99.90;;;;;;5042525;28;20032;-72
2023/10/19 11:15:00;;;;;;;12.57;1.48;;;19.10;99.90;;;;;;5042794;28;20107;-71
2023/10/19 11:17:31;;;;;;;9.30;0.90;;;19.00;99.90;;;;;;5042102;28;20401;-72
2023/10/19 11:19:58;;;;;;;10.18;0.98;;;19.00;99.90;;;;;;5047616;28;20756;-72
2023/10/19 11:22:26;;;;;;;8.50;1.20;;;19.00;99.90;;;;;;5048100;28;20405;-71
2023/10/19 11:25:13;;;;;;;8.80;1.10;;;19.00;99.90;;;;;;5044662;28;20029;-71
2023/10/19 11:27:39;;;;;;;10.13;1.08;;;18.90;99.90;;;;;;5044250;28;20028;-73
2023/10/19 11:30:07;;;;;;;9.90;1.30;;;18.90;99.90;;;;;;5044571;28;20040;-72
2023/10/19 11:32:39;;;;;;;7.03;1.30;;;18.90;99.90;;;;;;5042375;28;20029;-71
2023/10/19 11:35:06;;;;;;;8.77;0.98;;;19.00;99.90;;;;;;5043632;28;20029;-72
2023/10/19 11:37:49;;;;;;;8.63;1.23;;;19.10;99.90;;;;;;5046992;28;20052;-71
2023/10/19 11:40:15;;;;;;;7.50;1.25;;;19.20;99.90;;;;;;5044697;28;20037;-72
2023/10/19 11:42:41;;;;;;;6.57;1.27;;;19.20;99.90;;;;;;5040806;28;20048;-72
2023/10/19 11:45:07;;;;;;;10.00;1.15;;;19.10;99.90;;;;;;5047029;28;20017;-71
2023/10/19 11:47:33;;;;;;;10.98;1.13;;;19.10;99.90;;;;;;5040934;28;20021;-72
2023/10/19 11:49:58;;;;;;;10.13;1.85;;;19.00;99.90;;;;;;5043807;28;20025;-72
2023/10/19 11:52:24;;;;;;;5.15;1.05;;;18.80;99.90;;;;;;5039199;28;20204;-74
2023/10/19 11:54:49;;;;;;;10.50;1.25;;;18.70;99.90;;;;;;5044534;28;20025;-71
2023/10/19 11:57:15;;;;;;;8.93;1.45;;;18.60;99.90;;;;;;5043950;28;20041;-71
2023/10/19 11:59:40;;;;;;;5.78;1.02;;;18.50;99.90;;;;;;5048939;28;20033;-71
2023/10/19 12:02:06;;;;;;;9.68;0.90;;;18.60;99.90;;;;;;5052459;28;20389;-71
2023/10/19 12:04:36;;;;;;;7.07;1.00;;;18.60;99.90;;;;;;5053700;28;20025;-71
2023/10/19 12:07:03;;;;;;;7.80;1.83;;;18.60;99.90;;;;;;5050230;28;20473;-71
2023/10/19 12:09:28;;;;;;;11.07;1.27;;;18.80;99.90;;;;;;5048301;28;20025;-71
2023/10/19 12:11:54;;;;;;;5.47;1.13;;;18.80;99.90;;;;;;5046332;28;20024;-71
2023/10/19 12:14:21;;;;;;;10.30;1.45;;;18.90;99.90;;;;;;5044418;28;20033;-71
2023/10/19 12:16:47;;;;;;;13.50;1.35;;;18.90;99.90;;;;;;5041420;28;20033;-71
2023/10/19 12:19:14;;;;;;;8.30;0.90;;;18.90;99.90;;;;;;5047009;28;20013;-71
2023/10/19 12:21:41;;;;;;;10.00;1.00;;;18.90;99.90;;;;;;5050111;28;20436;-71
2023/10/19 12:24:07;;;;;;;8.23;1.13;;;18.80;99.90;;;;;;5052118;28;20025;-71
2023/10/19 12:26:33;;;;;;;5.47;1.15;;;18.70;99.90;;;;;;5050060;28;20381;-71
2023/10/19 12:28:59;;;;;;;10.75;0.70;;;18.70;99.90;;;;;;5048284;28;20039;-71
2023/10/19 12:31:25;;;;;;;8.85;0.90;;;18.60;99.90;;;;;;5043736;28;20091;-71
2023/10/19 12:33:51;;;;;;;13.43;1.23;;;18.60;99.90;;;;;;5047066;28;20426;-71
2023/10/19 12:38:49;;;;;;;12.20;0.90;;;18.60;99.90;;;;;;5048384;28;20417;-71
2023/10/19 12:41:15;;;;;;;7.03;1.33;;;18.50;99.90;;;;;;5038388;28;20088;-71
2023/10/19 12:43:41;;;;;;;11.73;1.52;;;18.50;99.90;;;;;;5051354;28;20033;-71
2023/10/19 12:46:08;;;;;;;9.05;0.60;;;18.40;99.90;;;;;;5045141;28;20064;-71
2023/10/19 12:48:35;;;;;;;9.57;0.80;;;18.30;99.90;;;;;;5049841;28;20072;-71
2023/10/19 12:51:11;;;;;;;9.63;0.70;;;18.30;99.90;;;;;;5039447;28;20039;-71
2023/10/19 12:53:40;;;;;;;7.13;0.70;;;18.20;99.90;;;;;;5045154;28;20018;-71
2023/10/19 12:56:07;;;;;;;16.23;1.20;;;18.20;99.90;;;;;;5049907;28;20115;-71
2023/10/19 12:58:33;;;;;;;5.05;0.95;;;18.10;99.90;;;;;;5052160;28;20394;-71
2023/10/19 13:00:58;;;;;;;10.25;0.70;;;18.10;99.90;;;;;;5050122;28;20032;-71
2023/10/19 13:03:31;;;;;;;9.40;0.75;;;18.00;99.90;;;;;;5049517;28;20037;-71
2023/10/19 13:05:58;;;;;;;7.50;0.90;;;18.00;99.90;;;;;;5043546;28;20033;-71